sensor_id;sensor_type;location;lat;lon;timestamp;temperature;humidity
7212;DHT22;3647;48.792;9.802;2022-09-01T04:27:14;14.80;99.90
7212;DHT22;3647;48.792;9.802;2022-09-01T04:29:42;15.10;99.90
7212;DHT22;3647;48.792;9.802;2022-09-01T04:32:10;15.20;99.90
7212;DHT22;3647;48.792;9.802;2022-09-01T04:34:38;15.40;99.90
7212;DHT22;3647;48.792;9.802;2022-09-01T04:37:08;15.40;99.90
7212;DHT22;3647;48.792;9.802;2022-09-01T04:39:35;15.50;99.90
7212;DHT22;3647;48.792;9.802;2022-09-01T04:42:04;15.50;99.90
7212;DHT22;3647;48.792;9.802;2022-09-01T04:44:32;15.50;99.90
7212;DHT22;3647;48.792;9.802;2022-09-01T04:47:00;15.50;99.90
7212;DHT22;3647;48.792;9.802;2022-09-01T04:49:27;15.40;99.90
7212;DHT22;3647;48.792;9.802;2022-09-01T04:51:58;15.60;99.90
7212;DHT22;3647;48.792;9.802;2022-09-01T04:54:25;15.70;99.90
7212;DHT22;3647;48.792;9.802;2022-09-01T04:56:52;15.70;99.90
7212;DHT22;3647;48.792;9.802;2022-09-01T07:47:24;18.80;99.90
7212;DHT22;3647;48.792;9.802;2022-09-01T07:49:53;18.80;99.90
7212;DHT22;3647;48.792;9.802;2022-09-01T07:52:21;18.80;99.90
7212;DHT22;3647;48.792;9.802;2022-09-01T07:54:47;18.90;99.90
7212;DHT22;3647;48.792;9.802;2022-09-01T07:57:14;18.90;99.90
7212;DHT22;3647;48.792;9.802;2022-09-01T07:59:41;19.00;99.90
7212;DHT22;3647;48.792;9.802;2022-09-01T08:02:10;19.20;99.90
7212;DHT22;3647;48.792;9.802;2022-09-01T08:04:38;20.50;99.90
7212;DHT22;3647;48.792;9.802;2022-09-01T08:07:05;18.60;99.90
7212;DHT22;3647;48.792;9.802;2022-09-01T08:09:35;18.70;99.90
7212;DHT22;3647;48.792;9.802;2022-09-01T08:12:03;18.80;99.90
7212;DHT22;3647;48.792;9.802;2022-09-01T08:14:30;19.00;99.90
7212;DHT22;3647;48.792;9.802;2022-09-01T08:16:57;19.10;99.90
7212;DHT22;3647;48.792;9.802;2022-09-01T08:19:24;19.20;99.90
7212;DHT22;3647;48.792;9.802;2022-09-01T08:21:52;19.20;99.90
7212;DHT22;3647;48.792;9.802;2022-09-01T08:24:19;20.00;99.90
7212;DHT22;3647;48.792;9.802;2022-09-01T08:26:46;19.20;99.90
7212;DHT22;3647;48.792;9.802;2022-09-01T08:29:13;19.20;99.90
7212;DHT22;3647;48.792;9.802;2022-09-01T08:31:40;19.10;99.90
7212;DHT22;3647;48.792;9.802;2022-09-01T08:34:07;19.20;99.90
7212;DHT22;3647;48.792;9.802;2022-09-01T08:36:37;19.40;99.90
7212;DHT22;3647;48.792;9.802;2022-09-01T08:39:05;19.50;99.90
7212;DHT22;3647;48.792;9.802;2022-09-01T08:41:40;19.70;99.90
7212;DHT22;3647;48.792;9.802;2022-09-01T08:44:15;19.70;99.90
7212;DHT22;3647;48.792;9.802;2022-09-01T08:46:44;19.70;99.90
7212;DHT22;3647;48.792;9.802;2022-09-01T08:49:15;19.70;99.90
7212;DHT22;3647;48.792;9.802;2022-09-01T08:51:48;19.60;99.90
7212;DHT22;3647;48.792;9.802;2022-09-01T08:54:22;19.60;99.90
7212;DHT22;3647;48.792;9.802;2022-09-01T08:56:52;19.50;99.90
7212;DHT22;3647;48.792;9.802;2022-09-01T08:59:20;19.40;99.90
7212;DHT22;3647;48.792;9.802;2022-09-01T09:01:52;19.50;99.90
7212;DHT22;3647;48.792;9.802;2022-09-01T09:04:35;19.50;99.90
7212;DHT22;3647;48.792;9.802;2022-09-01T09:07:11;19.80;99.90
7212;DHT22;3647;48.792;9.802;2022-09-01T09:09:46;19.10;99.90
7212;DHT22;3647;48.792;9.802;2022-09-01T09:12:35;19.20;99.90
7212;DHT22;3647;48.792;9.802;2022-09-01T09:15:14;19.20;99.90
7212;DHT22;3647;48.792;9.802;2022-09-01T09:17:46;19.30;99.90
7212;DHT22;3647;48.792;9.802;2022-09-01T09:20:15;19.30;99.90
7212;DHT22;3647;48.792;9.802;2022-09-01T09:22:44;19.20;99.90
7212;DHT22;3647;48.792;9.802;2022-09-01T09:25:16;21.50;99.90
7212;DHT22;3647;48.792;9.802;2022-09-01T09:27:44;19.40;99.90
7212;DHT22;3647;48.792;9.802;2022-09-01T09:30:13;19.40;99.90
7212;DHT22;3647;48.792;9.802;2022-09-01T09:32:47;21.80;99.90
7212;DHT22;3647;48.792;9.802;2022-09-01T09:35:22;19.60;99.90
7212;DHT22;3647;48.792;9.802;2022-09-01T09:37:51;19.70;99.90
7212;DHT22;3647;48.792;9.802;2022-09-01T09:40:21;19.90;99.90
7212;DHT22;3647;48.792;9.802;2022-09-01T09:43:02;19.90;99.90
7212;DHT22;3647;48.792;9.802;2022-09-01T09:45:30;20.40;99.90
7212;DHT22;3647;48.792;9.802;2022-09-01T09:48:02;20.60;99.90
7212;DHT22;3647;48.792;9.802;2022-09-01T09:50:31;20.70;99.90
7212;DHT22;3647;48.792;9.802;2022-09-01T09:53:14;20.80;99.90
7212;DHT22;3647;48.792;9.802;2022-09-01T09:55:55;20.60;99.90
7212;DHT22;3647;48.792;9.802;2022-09-01T09:58:26;20.30;99.90
7212;DHT22;3647;48.792;9.802;2022-09-01T10:01:06;20.20;99.90
7212;DHT22;3647;48.792;9.802;2022-09-01T10:03:39;20.30;99.90
7212;DHT22;3647;48.792;9.802;2022-09-01T10:06:10;20.40;99.90
7212;DHT22;3647;48.792;9.802;2022-09-01T10:08:40;20.80;99.90
7212;DHT22;3647;48.792;9.802;2022-09-01T10:11:24;20.80;99.90
7212;DHT22;3647;48.792;9.802;2022-09-01T10:13:52;20.90;99.90
7212;DHT22;3647;48.792;9.802;2022-09-01T10:16:24;20.70;99.90
7212;DHT22;3647;48.792;9.802;2022-09-01T10:18:52;20.80;99.90
7212;DHT22;3647;48.792;9.802;2022-09-01T10:21:27;20.90;99.90
7212;DHT22;3647;48.792;9.802;2022-09-01T10:23:55;20.90;99.90
7212;DHT22;3647;48.792;9.802;2022-09-01T10:26:30;20.80;99.90
7212;DHT22;3647;48.792;9.802;2022-09-01T10:28:59;21.00;99.90
7212;DHT22;3647;48.792;9.802;2022-09-01T10:31:27;21.30;99.90
7212;DHT22;3647;48.792;9.802;2022-09-01T10:33:55;21.40;99.90
7212;DHT22;3647;48.792;9.802;2022-09-01T10:36:22;21.70;99.90
7212;DHT22;3647;48.792;9.802;2022-09-01T10:38:49;21.20;99.90
7212;DHT22;3647;48.792;9.802;2022-09-01T10:41:45;21.40;99.90
7212;DHT22;3647;48.792;9.802;2022-09-01T10:44:19;21.60;99.90
7212;DHT22;3647;48.792;9.802;2022-09-01T10:46:47;21.80;99.90
7212;DHT22;3647;48.792;9.802;2022-09-01T10:51:56;21.70;99.90
7212;DHT22;3647;48.792;9.802;2022-09-01T10:54:54;21.60;99.90
7212;DHT22;3647;48.792;9.802;2022-09-01T10:57:35;22.40;99.90
7212;DHT22;3647;48.792;9.802;2022-09-01T11:06:58;22.00;99.90
7212;DHT22;3647;48.792;9.802;2022-09-01T11:09:32;22.00;99.90
7212;DHT22;3647;48.792;9.802;2022-09-01T11:12:20;22.00;99.90
7212;DHT22;3647;48.792;9.802;2022-09-01T11:14:52;21.80;99.90
7212;DHT22;3647;48.792;9.802;2022-09-01T11:17:22;21.40;99.90
7212;DHT22;3647;48.792;9.802;2022-09-01T11:20:03;21.30;99.90
7212;DHT22;3647;48.792;9.802;2022-09-01T11:22:36;21.00;99.90
7212;DHT22;3647;48.792;9.802;2022-09-01T11:25:30;21.00;99.90
7212;DHT22;3647;48.792;9.802;2022-09-01T11:30:54;21.10;99.90
7212;DHT22;3647;48.792;9.802;2022-09-01T11:33:31;21.10;99.90
7212;DHT22;3647;48.792;9.802;2022-09-01T11:36:01;20.80;99.90
7212;DHT22;3647;48.792;9.802;2022-09-01T11:38:33;21.00;99.90
7212;DHT22;3647;48.792;9.802;2022-09-01T11:41:03;21.00;99.90
7212;DHT22;3647;48.792;9.802;2022-09-01T11:43:30;20.80;99.90
7212;DHT22;3647;48.792;9.802;2022-09-01T11:46:11;20.90;99.90
7212;DHT22;3647;48.792;9.802;2022-09-01T11:48:45;21.00;99.90
7212;DHT22;3647;48.792;9.802;2022-09-01T11:51:13;21.00;99.90
7212;DHT22;3647;48.792;9.802;2022-09-01T11:53:41;20.70;99.90
7212;DHT22;3647;48.792;9.802;2022-09-01T11:56:15;20.70;99.90
7212;DHT22;3647;48.792;9.802;2022-09-01T11:58:42;21.00;99.90
7212;DHT22;3647;48.792;9.802;2022-09-01T12:01:16;21.00;99.90
7212;DHT22;3647;48.792;9.802;2022-09-01T12:03:44;21.00;99.90
7212;DHT22;3647;48.792;9.802;2022-09-01T12:06:19;20.80;99.90
7212;DHT22;3647;48.792;9.802;2022-09-01T12:08:54;20.60;99.90
7212;DHT22;3647;48.792;9.802;2022-09-01T12:11:23;20.80;99.90
7212;DHT22;3647;48.792;9.802;2022-09-01T12:13:57;23.30;99.90
7212;DHT22;3647;48.792;9.802;2022-09-01T12:16:27;21.20;99.90
7212;DHT22;3647;48.792;9.802;2022-09-01T12:18:56;21.30;99.90
7212;DHT22;3647;48.792;9.802;2022-09-01T12:21:26;21.10;99.90
7212;DHT22;3647;48.792;9.802;2022-09-01T12:24:09;21.10;99.90
7212;DHT22;3647;48.792;9.802;2022-09-01T12:26:38;20.90;99.90
7212;DHT22;3647;48.792;9.802;2022-09-01T12:29:05;20.90;99.90
7212;DHT22;3647;48.792;9.802;2022-09-01T12:31:34;21.20;99.90
7212;DHT22;3647;48.792;9.802;2022-09-01T12:34:01;21.40;99.90
7212;DHT22;3647;48.792;9.802;2022-09-01T12:36:30;21.70;99.90
7212;DHT22;3647;48.792;9.802;2022-09-01T12:39:19;21.30;99.90
7212;DHT22;3647;48.792;9.802;2022-09-01T12:41:59;21.30;99.90
7212;DHT22;3647;48.792;9.802;2022-09-01T12:44:31;21.20;99.90
7212;DHT22;3647;48.792;9.802;2022-09-01T12:47:01;21.20;99.90
7212;DHT22;3647;48.792;9.802;2022-09-01T12:49:37;21.50;99.90
7212;DHT22;3647;48.792;9.802;2022-09-01T12:52:12;22.20;99.90
7212;DHT22;3647;48.792;9.802;2022-09-01T12:54:40;21.50;99.90
7212;DHT22;3647;48.792;9.802;2022-09-01T12:57:07;21.50;99.90
7212;DHT22;3647;48.792;9.802;2022-09-01T12:59:35;21.50;99.90
7212;DHT22;3647;48.792;9.802;2022-09-01T13:02:28;21.70;99.90
7212;DHT22;3647;48.792;9.802;2022-09-01T13:05:20;21.90;99.90
7212;DHT22;3647;48.792;9.802;2022-09-01T13:07:48;22.10;99.90
7212;DHT22;3647;48.792;9.802;2022-09-01T13:10:15;22.40;99.90
7212;DHT22;3647;48.792;9.802;2022-09-01T13:12:42;22.30;99.90
7212;DHT22;3647;48.792;9.802;2022-09-01T13:15:10;22.10;99.90
7212;DHT22;3647;48.792;9.802;2022-09-01T13:17:39;22.40;99.90
7212;DHT22;3647;48.792;9.802;2022-09-01T13:20:07;22.40;99.90
7212;DHT22;3647;48.792;9.802;2022-09-01T13:22:34;22.30;99.90
7212;DHT22;3647;48.792;9.802;2022-09-01T13:25:03;22.40;99.90
7212;DHT22;3647;48.792;9.802;2022-09-01T13:27:30;22.50;99.90
7212;DHT22;3647;48.792;9.802;2022-09-01T13:29:57;22.70;99.90
7212;DHT22;3647;48.792;9.802;2022-09-01T13:32:24;22.60;99.90
7212;DHT22;3647;48.792;9.802;2022-09-01T13:34:52;22.70;99.90
7212;DHT22;3647;48.792;9.802;2022-09-01T13:37:20;22.80;99.90
7212;DHT22;3647;48.792;9.802;2022-09-01T13:39:47;22.90;99.90
7212;DHT22;3647;48.792;9.802;2022-09-01T13:42:14;22.80;99.90
7212;DHT22;3647;48.792;9.802;2022-09-01T13:44:41;23.10;99.90
7212;DHT22;3647;48.792;9.802;2022-09-01T13:47:08;23.10;99.90
7212;DHT22;3647;48.792;9.802;2022-09-01T13:49:35;23.30;99.90
7212;DHT22;3647;48.792;9.802;2022-09-01T13:52:04;23.80;99.90
7212;DHT22;3647;48.792;9.802;2022-09-01T13:54:31;23.90;99.90
7212;DHT22;3647;48.792;9.802;2022-09-01T13:56:57;23.90;99.90
7212;DHT22;3647;48.792;9.802;2022-09-01T13:59:24;25.00;99.90
7212;DHT22;3647;48.792;9.802;2022-09-01T14:01:51;24.00;99.90
7212;DHT22;3647;48.792;9.802;2022-09-01T14:04:19;23.60;99.90
7212;DHT22;3647;48.792;9.802;2022-09-01T14:09:24;23.40;99.90
7212;DHT22;3647;48.792;9.802;2022-09-01T14:11:52;23.10;99.90
7212;DHT22;3647;48.792;9.802;2022-09-01T14:14:19;22.90;99.90
7212;DHT22;3647;48.792;9.802;2022-09-01T14:16:46;22.70;99.90
7212;DHT22;3647;48.792;9.802;2022-09-01T14:19:14;22.70;99.90
7212;DHT22;3647;48.792;9.802;2022-09-01T14:21:41;22.80;99.90
7212;DHT22;3647;48.792;9.802;2022-09-01T14:24:08;23.00;99.90
7212;DHT22;3647;48.792;9.802;2022-09-01T14:26:37;23.10;99.90
7212;DHT22;3647;48.792;9.802;2022-09-01T14:29:04;23.40;99.90
7212;DHT22;3647;48.792;9.802;2022-09-01T14:31:31;23.60;99.90
7212;DHT22;3647;48.792;9.802;2022-09-01T14:33:58;23.90;99.90
7212;DHT22;3647;48.792;9.802;2022-09-01T14:36:26;23.20;99.90
7212;DHT22;3647;48.792;9.802;2022-09-01T14:38:57;22.80;99.90
7212;DHT22;3647;48.792;9.802;2022-09-01T14:41:25;22.90;99.90
7212;DHT22;3647;48.792;9.802;2022-09-01T14:43:54;22.50;99.90
7212;DHT22;3647;48.792;9.802;2022-09-01T14:46:23;22.40;99.90
7212;DHT22;3647;48.792;9.802;2022-09-01T14:48:51;22.10;99.90
7212;DHT22;3647;48.792;9.802;2022-09-01T14:51:21;22.20;99.90
7212;DHT22;3647;48.792;9.802;2022-09-01T14:53:49;22.10;99.90
7212;DHT22;3647;48.792;9.802;2022-09-01T14:56:20;22.20;99.90
7212;DHT22;3647;48.792;9.802;2022-09-01T14:58:51;22.30;99.90
7212;DHT22;3647;48.792;9.802;2022-09-01T15:01:28;22.20;99.90
7212;DHT22;3647;48.792;9.802;2022-09-01T15:03:55;22.00;99.90
7212;DHT22;3647;48.792;9.802;2022-09-01T15:06:23;22.00;99.90
7212;DHT22;3647;48.792;9.802;2022-09-01T15:08:50;22.00;99.90
7212;DHT22;3647;48.792;9.802;2022-09-01T15:11:20;21.90;99.90
7212;DHT22;3647;48.792;9.802;2022-09-01T15:14:01;21.90;99.90
7212;DHT22;3647;48.792;9.802;2022-09-01T15:16:31;21.90;99.90
7212;DHT22;3647;48.792;9.802;2022-09-01T15:19:11;21.70;99.90
7212;DHT22;3647;48.792;9.802;2022-09-01T15:21:41;21.80;99.90
7212;DHT22;3647;48.792;9.802;2022-09-01T15:24:10;22.00;99.90
7212;DHT22;3647;48.792;9.802;2022-09-01T15:26:39;22.20;99.90
7212;DHT22;3647;48.792;9.802;2022-09-01T15:29:17;22.20;99.90
7212;DHT22;3647;48.792;9.802;2022-09-01T15:31:46;22.30;99.90
7212;DHT22;3647;48.792;9.802;2022-09-01T15:34:16;22.10;99.90
7212;DHT22;3647;48.792;9.802;2022-09-01T15:36:43;22.30;99.90
7212;DHT22;3647;48.792;9.802;2022-09-01T15:39:11;23.60;99.90
7212;DHT22;3647;48.792;9.802;2022-09-01T15:41:43;22.10;99.90
7212;DHT22;3647;48.792;9.802;2022-09-01T15:44:10;21.90;99.90
7212;DHT22;3647;48.792;9.802;2022-09-01T15:46:38;22.70;99.90
7212;DHT22;3647;48.792;9.802;2022-09-01T15:49:11;22.10;99.90
7212;DHT22;3647;48.792;9.802;2022-09-01T15:51:39;22.10;99.90
7212;DHT22;3647;48.792;9.802;2022-09-01T15:54:09;22.20;99.90
7212;DHT22;3647;48.792;9.802;2022-09-01T15:56:38;22.20;99.90
7212;DHT22;3647;48.792;9.802;2022-09-01T15:59:07;21.00;99.90
7212;DHT22;3647;48.792;9.802;2022-09-01T16:01:35;22.30;99.90
7212;DHT22;3647;48.792;9.802;2022-09-01T16:06:51;22.40;99.90
7212;DHT22;3647;48.792;9.802;2022-09-01T16:09:21;22.50;99.90
7212;DHT22;3647;48.792;9.802;2022-09-01T16:11:48;22.60;99.90
7212;DHT22;3647;48.792;9.802;2022-09-01T16:14:15;22.60;99.90
7212;DHT22;3647;48.792;9.802;2022-09-01T16:16:51;22.50;99.90
7212;DHT22;3647;48.792;9.802;2022-09-01T16:19:32;22.50;99.90
7212;DHT22;3647;48.792;9.802;2022-09-01T16:22:12;22.40;99.90
7212;DHT22;3647;48.792;9.802;2022-09-01T16:24:44;22.40;99.90
7212;DHT22;3647;48.792;9.802;2022-09-01T16:27:13;22.20;99.90
7212;DHT22;3647;48.792;9.802;2022-09-01T16:29:46;22.20;99.90
7212;DHT22;3647;48.792;9.802;2022-09-01T16:32:14;22.00;99.90
7212;DHT22;3647;48.792;9.802;2022-09-01T16:34:46;22.00;99.90
7212;DHT22;3647;48.792;9.802;2022-09-01T16:37:42;21.70;99.90
7212;DHT22;3647;48.792;9.802;2022-09-01T16:40:25;21.80;99.90
7212;DHT22;3647;48.792;9.802;2022-09-01T16:43:03;21.70;99.90
7212;DHT22;3647;48.792;9.802;2022-09-01T16:46:00;21.70;99.90
7212;DHT22;3647;48.792;9.802;2022-09-01T16:48:36;21.60;99.90
7212;DHT22;3647;48.792;9.802;2022-09-01T16:51:14;21.60;99.90
7212;DHT22;3647;48.792;9.802;2022-09-01T16:54:01;21.60;99.90
7212;DHT22;3647;48.792;9.802;2022-09-01T16:56:41;21.50;99.90
7212;DHT22;3647;48.792;9.802;2022-09-01T16:59:21;21.30;99.90
7212;DHT22;3647;48.792;9.802;2022-09-01T17:02:13;21.30;99.90
7212;DHT22;3647;48.792;9.802;2022-09-01T17:04:46;21.30;99.90
7212;DHT22;3647;48.792;9.802;2022-09-01T17:07:21;21.30;99.90
7212;DHT22;3647;48.792;9.802;2022-09-01T17:09:58;21.20;99.90
7212;DHT22;3647;48.792;9.802;2022-09-01T17:12:36;21.20;99.90
7212;DHT22;3647;48.792;9.802;2022-09-01T17:15:07;21.20;99.90
7212;DHT22;3647;48.792;9.802;2022-09-01T17:17:42;21.30;99.90
7212;DHT22;3647;48.792;9.802;2022-09-01T17:20:11;21.60;99.90
7212;DHT22;3647;48.792;9.802;2022-09-01T17:22:43;21.70;99.90
7212;DHT22;3647;48.792;9.802;2022-09-01T17:25:22;21.80;99.90
7212;DHT22;3647;48.792;9.802;2022-09-01T17:27:55;21.60;99.90
7212;DHT22;3647;48.792;9.802;2022-09-01T17:30:24;21.70;99.90
7212;DHT22;3647;48.792;9.802;2022-09-01T17:33:05;21.70;99.90
7212;DHT22;3647;48.792;9.802;2022-09-01T17:35:38;21.70;99.90
7212;DHT22;3647;48.792;9.802;2022-09-01T17:38:14;21.70;99.90
7212;DHT22;3647;48.792;9.802;2022-09-01T17:41:03;21.70;99.90
7212;DHT22;3647;48.792;9.802;2022-09-01T17:43:41;21.60;99.90
7212;DHT22;3647;48.792;9.802;2022-09-01T17:46:17;21.60;99.90
7212;DHT22;3647;48.792;9.802;2022-09-01T17:48:51;21.60;99.90
7212;DHT22;3647;48.792;9.802;2022-09-01T17:51:26;21.40;99.90
7212;DHT22;3647;48.792;9.802;2022-09-01T17:54:02;21.40;99.90
7212;DHT22;3647;48.792;9.802;2022-09-01T17:56:42;21.40;99.90
7212;DHT22;3647;48.792;9.802;2022-09-01T17:59:15;21.20;99.90
7212;DHT22;3647;48.792;9.802;2022-09-01T18:01:55;21.30;99.90
7212;DHT22;3647;48.792;9.802;2022-09-01T18:04:55;21.10;99.90
7212;DHT22;3647;48.792;9.802;2022-09-01T18:07:35;20.90;99.90
7212;DHT22;3647;48.792;9.802;2022-09-01T18:10:10;20.90;99.90
7212;DHT22;3647;48.792;9.802;2022-09-01T18:12:40;23.00;99.90
7212;DHT22;3647;48.792;9.802;2022-09-01T18:15:10;20.90;99.90
7212;DHT22;3647;48.792;9.802;2022-09-01T18:17:40;20.90;99.90
7212;DHT22;3647;48.792;9.802;2022-09-01T18:20:09;20.80;99.90
7212;DHT22;3647;48.792;9.802;2022-09-01T18:22:41;20.60;99.90
7212;DHT22;3647;48.792;9.802;2022-09-01T18:25:16;20.30;99.90
7212;DHT22;3647;48.792;9.802;2022-09-01T18:27:47;20.00;99.90
7212;DHT22;3647;48.792;9.802;2022-09-01T18:30:17;19.70;99.90
7212;DHT22;3647;48.792;9.802;2022-09-01T18:32:50;19.60;99.90
7212;DHT22;3647;48.792;9.802;2022-09-01T18:35:27;19.40;99.90
7212;DHT22;3647;48.792;9.802;2022-09-01T18:38:14;19.20;99.90
7212;DHT22;3647;48.792;9.802;2022-09-01T18:41:03;19.00;99.90
7212;DHT22;3647;48.792;9.802;2022-09-01T18:43:38;18.90;99.90
7212;DHT22;3647;48.792;9.802;2022-09-01T18:46:15;18.80;99.90
7212;DHT22;3647;48.792;9.802;2022-09-01T18:48:53;18.70;99.90
7212;DHT22;3647;48.792;9.802;2022-09-01T18:51:43;18.60;99.90
7212;DHT22;3647;48.792;9.802;2022-09-01T18:54:16;18.50;99.90
7212;DHT22;3647;48.792;9.802;2022-09-01T18:56:48;18.50;99.90
7212;DHT22;3647;48.792;9.802;2022-09-01T18:59:34;18.40;99.90
7212;DHT22;3647;48.792;9.802;2022-09-01T19:05:17;18.20;99.90
7212;DHT22;3647;48.792;9.802;2022-09-01T19:07:50;18.20;99.90
7212;DHT22;3647;48.792;9.802;2022-09-01T19:10:23;18.10;99.90
7212;DHT22;3647;48.792;9.802;2022-09-01T19:12:55;18.00;99.90
7212;DHT22;3647;48.792;9.802;2022-09-01T19:15:39;17.90;99.90
7212;DHT22;3647;48.792;9.802;2022-09-01T19:18:11;17.80;99.90
7212;DHT22;3647;48.792;9.802;2022-09-01T19:20:44;17.80;99.90
7212;DHT22;3647;48.792;9.802;2022-09-01T19:23:18;17.70;99.90
7212;DHT22;3647;48.792;9.802;2022-09-01T19:25:47;17.60;99.90
7212;DHT22;3647;48.792;9.802;2022-09-01T19:28:20;17.50;99.90
7212;DHT22;3647;48.792;9.802;2022-09-01T19:30:54;17.40;99.90
7212;DHT22;3647;48.792;9.802;2022-09-01T19:33:30;18.90;99.90
7212;DHT22;3647;48.792;9.802;2022-09-01T19:36:01;17.10;99.90
7212;DHT22;3647;48.792;9.802;2022-09-01T19:38:29;17.00;99.90
7212;DHT22;3647;48.792;9.802;2022-09-01T19:41:01;17.00;99.90
7212;DHT22;3647;48.792;9.802;2022-09-01T19:43:35;17.00;99.90
7212;DHT22;3647;48.792;9.802;2022-09-01T19:46:27;16.90;99.90
7212;DHT22;3647;48.792;9.802;2022-09-01T19:49:05;19.40;99.90
7212;DHT22;3647;48.792;9.802;2022-09-01T19:51:41;16.80;99.90
7212;DHT22;3647;48.792;9.802;2022-09-01T19:54:21;16.70;99.90
7212;DHT22;3647;48.792;9.802;2022-09-01T19:56:55;16.70;99.90
7212;DHT22;3647;48.792;9.802;2022-09-01T19:59:30;16.80;99.90
7212;DHT22;3647;48.792;9.802;2022-09-01T20:02:10;16.70;99.90
7212;DHT22;3647;48.792;9.802;2022-09-01T20:04:43;16.60;99.90
7212;DHT22;3647;48.792;9.802;2022-09-01T20:07:17;16.60;99.90
7212;DHT22;3647;48.792;9.802;2022-09-01T20:09:52;16.40;99.90
7212;DHT22;3647;48.792;9.802;2022-09-01T20:12:24;16.30;99.90
7212;DHT22;3647;48.792;9.802;2022-09-01T20:15:00;16.30;99.90
7212;DHT22;3647;48.792;9.802;2022-09-01T20:17:33;16.20;99.90
7212;DHT22;3647;48.792;9.802;2022-09-01T20:20:08;16.20;99.90
7212;DHT22;3647;48.792;9.802;2022-09-01T20:22:42;16.10;99.90
7212;DHT22;3647;48.792;9.802;2022-09-01T20:25:16;16.20;99.90
7212;DHT22;3647;48.792;9.802;2022-09-01T20:27:50;16.20;99.90
7212;DHT22;3647;48.792;9.802;2022-09-01T20:30:20;16.20;99.90
7212;DHT22;3647;48.792;9.802;2022-09-01T20:32:54;16.20;99.90
7212;DHT22;3647;48.792;9.802;2022-09-01T20:35:27;16.10;99.90
7212;DHT22;3647;48.792;9.802;2022-09-01T20:37:59;16.10;99.90
7212;DHT22;3647;48.792;9.802;2022-09-01T20:40:32;16.10;99.90
7212;DHT22;3647;48.792;9.802;2022-09-01T20:43:06;16.10;99.90
7212;DHT22;3647;48.792;9.802;2022-09-01T20:45:37;16.00;99.90
7212;DHT22;3647;48.792;9.802;2022-09-01T20:48:13;16.00;99.90
7212;DHT22;3647;48.792;9.802;2022-09-01T20:50:47;16.00;99.90
7212;DHT22;3647;48.792;9.802;2022-09-01T20:53:33;16.00;99.90
